Time;durP1;ratioP1;P1;durP2;ratioP2;P2;SDS_P1;SDS_P2;PMS_P1;PMS_P2;Temp;Humidity;BMP_temperature;BMP_pressure;BME280_temperature;BME280_humidity;BME280_pressure;Samples;Min_cycle;Max_cycle;Signal;HPM_P1;HPM_P2
2023/05/27 00:01:53;;;;;;;10.02;9.73;;;15.00;99.90;;;;;;5105050;28;20237;-83
2023/05/27 00:04:23;;;;;;;9.98;9.68;;;15.00;99.90;;;;;;5104078;28;20233;-83
2023/05/27 00:06:52;;;;;;;10.07;9.77;;;15.00;99.90;;;;;;5104887;28;20256;-83
2023/05/27 00:09:22;;;;;;;10.00;9.70;;;15.00;99.90;;;;;;5109175;28;20256;-83
2023/05/27 00:12:08;;;;;;;10.20;9.90;;;15.00;99.90;;;;;;5111197;28;20233;-84
2023/05/27 00:18:02;;;;;;;10.02;9.73;;;15.00;99.90;;;;;;5210919;27;20591;-83
2023/05/27 00:20:32;;;;;;;9.70;9.40;;;14.90;99.90;;;;;;5188856;27;20226;-83
2023/05/27 00:23:02;;;;;;;9.95;9.65;;;15.00;99.90;;;;;;5187384;27;20274;-83
2023/05/27 00:25:31;;;;;;;10.00;9.70;;;14.90;99.90;;;;;;5184992;27;20230;-83
2023/05/27 00:28:00;;;;;;;9.80;9.50;;;14.90;99.90;;;;;;5190680;27;20298;-83
2023/05/27 00:30:30;;;;;;;10.00;9.70;;;14.80;99.90;;;;;;5188847;27;20230;-83
2023/05/27 00:33:02;;;;;;;9.70;9.40;;;14.70;99.90;;;;;;5187212;27;20218;-83
2023/05/27 00:35:30;;;;;;;9.70;9.40;;;14.70;99.90;;;;;;5185422;27;20303;-83
2023/05/27 00:37:58;;;;;;;9.75;9.45;;;14.70;99.90;;;;;;5184203;27;20230;-83
2023/05/27 00:40:28;;;;;;;9.50;9.20;;;14.70;99.90;;;;;;5183697;27;20321;-83
2023/05/27 00:42:57;;;;;;;9.35;9.05;;;14.70;99.90;;;;;;5185705;27;20219;-83
2023/05/27 00:45:25;;;;;;;9.70;9.40;;;14.60;99.90;;;;;;5189570;27;20266;-81
2023/05/27 00:47:55;;;;;;;9.57;9.27;;;14.60;99.90;;;;;;5189509;27;20230;-83
2023/05/27 00:50:37;;;;;;;9.70;9.40;;;14.60;99.90;;;;;;5189021;27;20260;-83
2023/05/27 00:53:04;;;;;;;9.60;9.30;;;14.60;99.90;;;;;;5185385;27;20223;-83
2023/05/27 00:55:33;;;;;;;9.77;9.48;;;14.50;99.90;;;;;;5185117;27;20223;-83
2023/05/27 00:58:03;;;;;;;9.85;9.55;;;14.40;99.90;;;;;;5184565;27;20231;-83
2023/05/27 01:00:32;;;;;;;9.70;9.40;;;14.40;99.90;;;;;;5183560;27;20231;-82
2023/05/27 01:03:02;;;;;;;9.80;9.50;;;14.30;99.90;;;;;;5183997;27;20242;-83
2023/05/27 01:05:35;;;;;;;9.70;9.40;;;14.30;99.90;;;;;;5183929;27;20235;-83
2023/05/27 01:08:25;;;;;;;9.77;9.48;;;14.30;99.90;;;;;;5183941;27;20234;-83
2023/05/27 01:10:56;;;;;;;10.10;9.80;;;14.30;99.90;;;;;;5184143;27;20219;-83
2023/05/27 01:13:34;;;;;;;9.90;9.60;;;14.30;99.90;;;;;;5184104;27;20223;-82
2023/05/27 01:16:24;;;;;;;9.83;9.53;;;14.20;99.90;;;;;;5190469;27;20234;-83
2023/05/27 01:19:02;;;;;;;10.00;9.70;;;14.20;99.90;;;;;;5184356;27;20259;-83
2023/05/27 01:24:18;;;;;;;9.93;9.63;;;14.00;99.90;;;;;;5183691;27;21115;-83
2023/05/27 01:26:45;;;;;;;10.10;9.80;;;14.00;99.90;;;;;;5182740;27;20230;-82
2023/05/27 01:29:15;;;;;;;9.97;9.67;;;14.00;99.90;;;;;;5169848;27;20224;-83
2023/05/27 01:31:49;;;;;;;10.30;10.00;;;14.00;99.90;;;;;;5169967;27;20228;-83
2023/05/27 01:34:41;;;;;;;9.80;9.50;;;14.00;99.90;;;;;;5169498;27;20256;-83
2023/05/27 01:37:17;;;;;;;9.80;9.50;;;14.00;99.90;;;;;;5169284;27;20239;-83
2023/05/27 01:39:52;;;;;;;10.03;9.73;;;13.90;99.90;;;;;;5170141;27;20238;-83
2023/05/27 01:42:25;;;;;;;10.13;9.83;;;13.80;99.90;;;;;;5169521;27;20281;-83
2023/05/27 01:44:56;;;;;;;9.80;9.50;;;13.90;99.90;;;;;;5169227;27;20253;-83
2023/05/27 01:47:26;;;;;;;10.10;9.80;;;13.80;99.90;;;;;;5168989;27;20251;-83
2023/05/27 01:49:54;;;;;;;10.00;9.70;;;13.80;99.90;;;;;;5169045;27;20238;-83
2023/05/27 01:52:23;;;;;;;10.00;9.70;;;13.80;99.90;;;;;;5169114;27;20255;-83
2023/05/27 01:55:04;;;;;;;9.95;9.65;;;13.80;99.90;;;;;;5168656;27;20284;-83
2023/05/27 01:57:32;;;;;;;10.30;10.00;;;13.80;99.90;;;;;;5168519;27;20318;-83
2023/05/27 02:00:01;;;;;;;10.03;9.73;;;13.80;99.90;;;;;;5168718;27;20258;-83
2023/05/27 02:02:32;;;;;;;10.00;9.70;;;13.70;99.90;;;;;;5169835;27;20269;-83
2023/05/27 02:05:00;;;;;;;9.80;9.50;;;13.60;99.90;;;;;;5172014;27;20231;-83
2023/05/27 02:07:29;;;;;;;10.10;9.80;;;13.60;99.90;;;;;;5169467;27;20223;-83
2023/05/27 02:10:01;;;;;;;10.07;9.77;;;13.60;99.90;;;;;;5169744;27;21059;-83
2023/05/27 02:12:30;;;;;;;9.90;9.60;;;13.50;99.90;;;;;;5172278;27;20231;-83
2023/05/27 02:14:59;;;;;;;9.90;9.60;;;13.50;99.90;;;;;;5170724;27;20316;-83
2023/05/27 02:17:28;;;;;;;9.80;9.50;;;13.50;99.90;;;;;;5167925;27;20318;-83
2023/05/27 02:19:58;;;;;;;9.70;9.40;;;13.40;99.90;;;;;;5169100;27;20270;-82
2023/05/27 02:22:28;;;;;;;9.70;9.40;;;13.50;99.90;;;;;;5168710;27;20278;-83
2023/05/27 02:25:00;;;;;;;9.77;9.47;;;13.50;99.90;;;;;;5168387;27;20262;-83
2023/05/27 02:27:27;;;;;;;9.97;9.67;;;13.50;99.90;;;;;;5174885;27;20294;-83
2023/05/27 02:29:56;;;;;;;9.70;9.40;;;13.50;99.90;;;;;;5172522;27;20243;-83
2023/05/27 02:32:25;;;;;;;9.70;9.40;;;13.40;99.90;;;;;;5171448;27;20348;-83
2023/05/27 02:34:54;;;;;;;9.93;9.63;;;13.30;99.90;;;;;;5170259;27;20250;-83
2023/05/27 02:37:25;;;;;;;9.80;9.50;;;13.30;99.90;;;;;;5169621;27;20326;-83
2023/05/27 02:39:55;;;;;;;9.90;9.60;;;13.20;99.90;;;;;;5168216;27;20232;-83
2023/05/27 02:42:25;;;;;;;9.80;9.50;;;13.10;99.90;;;;;;5169561;27;20253;-83
2023/05/27 02:44:53;;;;;;;9.90;9.60;;;13.10;99.90;;;;;;5173324;27;20283;-82
2023/05/27 02:47:23;;;;;;;9.70;9.40;;;13.10;99.90;;;;;;5169524;27;20239;-83
2023/05/27 02:49:51;;;;;;;9.90;9.60;;;13.10;99.90;;;;;;5169608;27;20287;-83
2023/05/27 02:52:21;;;;;;;9.80;9.50;;;13.10;99.90;;;;;;5171793;27;20248;-83
2023/05/27 02:54:50;;;;;;;9.90;9.60;;;13.00;99.90;;;;;;5170162;27;20277;-83
2023/05/27 02:57:21;;;;;;;10.10;9.80;;;12.90;99.90;;;;;;5168369;27;20234;-82
2023/05/27 02:59:52;;;;;;;10.50;10.20;;;12.90;99.90;;;;;;5169707;27;20262;-83
2023/05/27 03:02:19;;;;;;;10.43;10.13;;;12.90;99.90;;;;;;5170169;27;20239;-83
2023/05/27 03:04:48;;;;;;;10.40;10.10;;;12.90;99.90;;;;;;5180541;27;20215;-82
2023/05/27 03:07:17;;;;;;;10.40;10.10;;;12.80;99.90;;;;;;5182314;27;20264;-82
2023/05/27 03:09:47;;;;;;;10.67;10.37;;;12.80;99.90;;;;;;5175604;27;20254;-83
2023/05/27 03:12:17;;;;;;;10.50;10.20;;;12.80;99.90;;;;;;5174179;27;20227;-83
2023/05/27 03:14:46;;;;;;;10.77;10.47;;;12.70;99.90;;;;;;5172947;27;20224;-82
2023/05/27 03:17:24;;;;;;;10.53;10.23;;;12.70;99.90;;;;;;5170181;27;20235;-83
2023/05/27 03:19:53;;;;;;;10.70;10.40;;;12.70;99.90;;;;;;5170333;27;20333;-83
2023/05/27 03:22:23;;;;;;;10.90;10.60;;;12.60;99.90;;;;;;5170249;27;20249;-83
2023/05/27 03:24:53;;;;;;;10.70;10.40;;;12.60;99.90;;;;;;5169524;27;20227;-82
2023/05/27 03:27:21;;;;;;;10.33;10.03;;;12.60;99.90;;;;;;5170063;27;20231;-82
2023/05/27 03:29:51;;;;;;;10.83;10.53;;;12.50;99.90;;;;;;5170742;27;20235;-83
2023/05/27 03:32:23;;;;;;;10.23;9.93;;;12.50;99.90;;;;;;5169827;27;20223;-83
2023/05/27 03:34:51;;;;;;;10.20;9.90;;;12.50;99.90;;;;;;5169087;27;20253;-83
2023/05/27 03:37:20;;;;;;;10.30;10.00;;;12.50;99.90;;;;;;5168316;27;20227;-83
2023/05/27 03:39:49;;;;;;;10.13;9.83;;;12.40;99.90;;;;;;5170314;27;20274;-83
2023/05/27 03:42:18;;;;;;;10.20;9.90;;;12.40;99.90;;;;;;5170689;27;20295;-83
2023/05/27 03:44:47;;;;;;;10.03;9.73;;;12.40;99.90;;;;;;5170399;27;20239;-83
2023/05/27 03:47:20;;;;;;;10.30;10.00;;;12.40;99.90;;;;;;5169026;27;20231;-83
2023/05/27 03:49:49;;;;;;;9.90;9.60;;;12.40;99.90;;;;;;5169825;27;20284;-83
2023/05/27 03:52:17;;;;;;;10.20;9.90;;;12.40;99.90;;;;;;5170450;27;20275;-83
2023/05/27 03:54:45;;;;;;;10.10;9.80;;;12.40;99.90;;;;;;5173551;27;20215;-83
2023/05/27 03:57:15;;;;;;;10.20;9.90;;;12.40;99.90;;;;;;5179693;27;20251;-83
2023/05/27 03:59:44;;;;;;;10.20;9.90;;;12.40;99.90;;;;;;5181063;27;20291;-83
2023/05/27 04:02:14;;;;;;;10.20;9.90;;;12.40;99.90;;;;;;5181498;27;20215;-84
2023/05/27 04:04:43;;;;;;;10.13;9.83;;;12.40;99.90;;;;;;5182085;27;20324;-83
2023/05/27 04:07:26;;;;;;;10.23;9.93;;;12.40;99.90;;;;;;5174007;27;20216;-84
2023/05/27 04:09:54;;;;;;;10.30;10.00;;;12.40;99.90;;;;;;5172180;27;20237;-84
2023/05/27 04:12:22;;;;;;;10.20;9.90;;;12.40;99.90;;;;;;5171862;27;20247;-83
2023/05/27 04:14:51;;;;;;;10.30;10.00;;;12.40;99.90;;;;;;5173103;27;20231;-84
2023/05/27 04:17:21;;;;;;;10.33;10.03;;;12.30;99.90;;;;;;5171618;27;20223;-83
2023/05/27 04:19:50;;;;;;;10.30;10.00;;;12.40;99.90;;;;;;5168086;27;20262;-84
2023/05/27 04:22:29;;;;;;;10.17;9.87;;;12.40;99.90;;;;;;5166898;27;21119;-84
2023/05/27 04:24:58;;;;;;;10.20;9.90;;;12.30;99.90;;;;;;5167174;27;20219;-84
2023/05/27 04:27:28;;;;;;;10.20;9.90;;;12.30;99.90;;;;;;5166283;27;20239;-84
2023/05/27 04:29:58;;;;;;;10.50;10.20;;;12.30;99.90;;;;;;5167696;27;20296;-84
2023/05/27 04:32:27;;;;;;;10.10;9.80;;;12.30;99.90;;;;;;5167404;27;20227;-82
2023/05/27 04:34:57;;;;;;;10.00;9.70;;;12.40;99.90;;;;;;5166927;27;20226;-82
2023/05/27 04:37:28;;;;;;;10.50;10.20;;;12.30;99.90;;;;;;5165861;27;20215;-82
2023/05/27 04:39:56;;;;;;;10.23;9.93;;;12.30;99.90;;;;;;5172550;27;20255;-82
2023/05/27 04:42:24;;;;;;;10.10;9.80;;;12.30;99.90;;;;;;5167830;27;20242;-83
2023/05/27 04:44:53;;;;;;;10.10;9.80;;;12.40;99.90;;;;;;5167243;27;20288;-82
2023/05/27 04:47:23;;;;;;;10.50;10.20;;;12.40;99.90;;;;;;5166203;27;20274;-82
2023/05/27 04:49:53;;;;;;;10.17;9.87;;;12.40;99.90;;;;;;5168747;27;20259;-82
2023/05/27 04:52:23;;;;;;;10.37;10.07;;;12.40;99.90;;;;;;5166521;27;20231;-82
2023/05/27 04:55:01;;;;;;;10.20;9.90;;;12.40;99.90;;;;;;5165376;27;20224;-83
2023/05/27 04:57:30;;;;;;;10.27;9.97;;;12.50;99.90;;;;;;5168217;22;20251;-85
2023/05/27 05:05:24;;;;;;;10.20;9.90;;;12.50;99.90;;;;;;5127105;28;20261;-86
2023/05/27 05:07:54;;;;;;;10.40;10.10;;;12.50;99.90;;;;;;5127019;28;20225;-85
2023/05/27 05:10:32;;;;;;;10.43;10.13;;;12.60;99.90;;;;;;5126806;28;20225;-85
2023/05/27 05:13:02;;;;;;;10.50;10.20;;;12.70;99.90;;;;;;5128086;28;20224;-85
2023/05/27 05:15:31;;;;;;;10.07;9.77;;;12.80;99.90;;;;;;5127767;28;20267;-86
2023/05/27 05:18:01;;;;;;;10.70;10.40;;;12.80;99.90;;;;;;5126773;27;20236;-85
2023/05/27 05:20:31;;;;;;;10.30;10.00;;;12.90;99.90;;;;;;5126699;28;20240;-85
2023/05/27 05:22:59;;;;;;;10.40;10.10;;;12.90;99.90;;;;;;5127282;27;20228;-85
2023/05/27 05:25:39;;;;;;;10.37;10.07;;;12.90;99.90;;;;;;5127335;28;20232;-86
2023/05/27 05:28:07;;;;;;;10.27;9.97;;;12.90;99.90;;;;;;5127087;28;20244;-85
2023/05/27 05:30:36;;;;;;;10.23;9.93;;;13.00;99.90;;;;;;5127272;28;20221;-85
2023/05/27 05:33:05;;;;;;;10.43;10.13;;;13.10;99.90;;;;;;5127649;28;20232;-86
2023/05/27 05:35:35;;;;;;;10.10;9.80;;;13.10;99.90;;;;;;5127044;28;20281;-86
2023/05/27 05:38:04;;;;;;;10.07;9.77;;;13.10;99.90;;;;;;5126792;28;20221;-86
2023/05/27 05:40:48;;;;;;;10.27;9.97;;;13.20;99.90;;;;;;5127152;28;20228;-86
2023/05/27 05:43:22;;;;;;;10.07;9.77;;;13.20;99.90;;;;;;5127131;28;20225;-86
2023/05/27 05:45:50;;;;;;;10.20;9.90;;;13.30;99.90;;;;;;5127155;28;20298;-86
2023/05/27 05:48:20;;;;;;;10.40;10.10;;;13.50;99.90;;;;;;5127847;28;20227;-85
2023/05/27 05:50:49;;;;;;;10.40;10.10;;;13.50;99.90;;;;;;5139168;28;20233;-85
2023/05/27 05:53:19;;;;;;;10.20;9.90;;;13.60;99.90;;;;;;5138852;27;20236;-85
2023/05/27 05:55:57;;;;;;;10.30;10.00;;;13.80;99.90;;;;;;5135683;28;20221;-86
2023/05/27 05:58:27;;;;;;;10.10;9.80;;;13.80;99.90;;;;;;5130511;27;20220;-85
2023/05/27 06:00:56;;;;;;;10.20;9.90;;;13.80;99.90;;;;;;5130594;28;20324;-86
2023/05/27 06:03:26;;;;;;;10.20;9.90;;;13.90;99.90;;;;;;5129528;27;20225;-86
2023/05/27 06:05:55;;;;;;;10.50;10.20;;;14.00;99.90;;;;;;5128074;27;20240;-86
2023/05/27 06:08:24;;;;;;;10.45;10.15;;;14.10;99.90;;;;;;5126788;28;20316;-86
2023/05/27 06:10:57;;;;;;;10.45;10.15;;;14.20;99.90;;;;;;5126883;28;20228;-85
2023/05/27 06:13:25;;;;;;;10.52;10.23;;;14.30;99.90;;;;;;5127806;28;20237;-86
2023/05/27 06:15:55;;;;;;;10.55;10.25;;;14.40;99.90;;;;;;5128290;27;20252;-85
2023/05/27 06:18:24;;;;;;;10.57;10.27;;;14.50;99.90;;;;;;5140586;27;20208;-85
2023/05/27 06:20:54;;;;;;;10.70;10.40;;;14.60;99.90;;;;;;5132437;27;20251;-86
2023/05/27 06:23:23;;;;;;;10.85;10.55;;;14.70;99.90;;;;;;5131551;28;20232;-85
2023/05/27 06:25:54;;;;;;;10.60;10.30;;;14.80;99.90;;;;;;5138651;28;20239;-85
2023/05/27 06:28:22;;;;;;;10.45;10.15;;;14.90;99.90;;;;;;5137545;27;20221;-86
2023/05/27 06:30:51;;;;;;;10.65;10.35;;;15.00;99.90;;;;;;5130213;28;20254;-85
2023/05/27 06:33:20;;;;;;;10.50;10.20;;;15.10;99.90;;;;;;5128386;28;20257;-85
2023/05/27 06:35:51;;;;;;;10.45;10.15;;;15.20;99.90;;;;;;5132562;28;20271;-85
2023/05/27 06:38:19;;;;;;;10.35;10.05;;;15.30;99.90;;;;;;5129248;28;20224;-85
2023/05/27 06:40:52;;;;;;;10.50;10.20;;;15.30;99.90;;;;;;5128529;28;20228;-85
2023/05/27 06:43:21;;;;;;;10.55;10.25;;;15.40;99.90;;;;;;5128894;27;20282;-86
2023/05/27 06:45:49;;;;;;;10.35;10.05;;;15.60;99.90;;;;;;5128837;28;20315;-85
2023/05/27 06:48:18;;;;;;;10.45;10.15;;;15.60;99.90;;;;;;5127200;28;20252;-86
2023/05/27 06:50:48;;;;;;;10.45;10.15;;;15.70;99.90;;;;;;5127440;28;20232;-85
2023/05/27 06:53:17;;;;;;;10.80;10.50;;;15.70;99.90;;;;;;5128018;28;20254;-86
2023/05/27 06:55:46;;;;;;;10.70;10.40;;;15.80;99.90;;;;;;5125946;28;20227;-86
2023/05/27 06:58:15;;;;;;;10.48;10.18;;;15.90;99.90;;;;;;5125160;27;20282;-86
2023/05/27 07:00:47;;;;;;;10.23;9.93;;;16.00;99.90;;;;;;5126394;28;20297;-85
2023/05/27 07:03:16;;;;;;;10.52;10.23;;;16.10;99.90;;;;;;5125664;28;20232;-85
2023/05/27 07:05:44;;;;;;;10.57;10.27;;;16.20;99.90;;;;;;5125228;28;20224;-86
2023/05/27 07:08:13;;;;;;;10.57;10.27;;;16.30;99.90;;;;;;5124702;28;20237;-86
2023/05/27 07:10:42;;;;;;;10.60;10.30;;;16.40;99.90;;;;;;5125634;28;20320;-86
2023/05/27 07:13:13;;;;;;;10.65;10.35;;;16.50;99.90;;;;;;5125873;28;20260;-86
2023/05/27 07:15:41;;;;;;;10.70;10.40;;;16.50;99.90;;;;;;5124766;28;20280;-86
2023/05/27 07:18:19;;;;;;;10.60;10.30;;;16.70;99.90;;;;;;5124410;28;20296;-86
2023/05/27 07:20:48;;;;;;;10.65;10.35;;;16.80;99.90;;;;;;5125018;28;20240;-86
2023/05/27 07:23:18;;;;;;;10.63;10.32;;;16.80;99.90;;;;;;5124763;27;20233;-85
2023/05/27 07:25:47;;;;;;;10.75;10.45;;;16.90;99.90;;;;;;5123709;28;20224;-86
2023/05/27 07:28:17;;;;;;;11.05;10.75;;;16.90;99.90;;;;;;5124351;28;20220;-85
2023/05/27 07:30:48;;;;;;;10.60;10.30;;;17.00;99.90;;;;;;5124006;28;20288;-86
2023/05/27 07:33:18;;;;;;;10.68;10.38;;;17.10;99.90;;;;;;5124159;28;20264;-86
2023/05/27 07:35:46;;;;;;;10.52;10.23;;;17.20;99.90;;;;;;5124749;28;20227;-85
2023/05/27 07:38:15;;;;;;;10.27;9.98;;;17.30;99.90;;;;;;5123537;28;20296;-86
2023/05/27 07:40:45;;;;;;;10.30;10.00;;;17.30;99.90;;;;;;5124309;28;20229;-85
2023/05/27 07:43:14;;;;;;;10.50;10.20;;;17.50;99.90;;;;;;5124166;28;20251;-86
2023/05/27 07:45:43;;;;;;;10.27;9.98;;;17.60;99.90;;;;;;5123922;28;20235;-85
2023/05/27 07:48:13;;;;;;;10.10;9.80;;;17.70;99.90;;;;;;5123988;28;20271;-87
2023/05/27 07:50:45;;;;;;;10.20;9.90;;;17.80;99.90;;;;;;5126228;28;20221;-85
2023/05/27 07:53:12;;;;;;;10.27;9.98;;;17.90;99.90;;;;;;5138527;27;20288;-86
2023/05/27 07:55:41;;;;;;;10.40;10.10;;;18.00;99.90;;;;;;5129886;28;20294;-86
2023/05/27 07:58:12;;;;;;;10.50;10.20;;;18.10;99.90;;;;;;5123166;27;20242;-86
2023/05/27 08:00:40;;;;;;;10.45;10.15;;;18.30;99.90;;;;;;5124685;28;20232;-86
2023/05/27 08:03:09;;;;;;;10.88;10.57;;;18.40;99.90;;;;;;5124044;28;20232;-86
2023/05/27 08:05:39;;;;;;;10.55;10.25;;;18.60;99.90;;;;;;5123765;28;20235;-86
2023/05/27 08:08:11;;;;;;;11.10;10.80;;;18.60;99.90;;;;;;5123539;28;20278;-86
2023/05/27 08:10:39;;;;;;;10.85;10.55;;;18.60;99.90;;;;;;5123714;28;20236;-86
2023/05/27 08:13:09;;;;;;;10.73;10.43;;;18.70;99.90;;;;;;5123961;28;20221;-86
2023/05/27 08:15:39;;;;;;;10.73;10.43;;;18.80;99.90;;;;;;5124738;27;20217;-86
2023/05/27 08:18:08;;;;;;;10.60;10.30;;;18.80;99.90;;;;;;5123774;28;20224;-86
2023/05/27 08:20:37;;;;;;;10.07;9.77;;;18.80;99.90;;;;;;5124020;28;20228;-86
2023/05/27 08:23:08;;;;;;;10.30;10.00;;;18.80;99.90;;;;;;5124118;28;20229;-86
2023/05/27 08:25:36;;;;;;;10.57;10.27;;;18.90;99.90;;;;;;5125896;28;20315;-86
2023/05/27 08:28:06;;;;;;;10.73;10.43;;;19.00;99.90;;;;;;5137016;28;20248;-86
2023/05/27 08:30:35;;;;;;;10.90;10.60;;;19.10;99.90;;;;;;5125731;28;20245;-86
2023/05/27 08:33:04;;;;;;;10.52;10.23;;;19.30;99.90;;;;;;5124760;28;20281;-87
2023/05/27 08:35:34;;;;;;;11.10;10.80;;;19.50;99.90;;;;;;5123738;28;20213;-87
2023/05/27 08:38:03;;;;;;;10.73;10.43;;;19.50;99.90;;;;;;5124415;27;20228;-86
2023/05/27 08:40:42;;;;;;;10.85;10.55;;;19.70;99.90;;;;;;5127520;28;20293;-86
2023/05/27 08:43:11;;;;;;;10.95;10.65;;;19.80;99.90;;;;;;5127576;28;20228;-87
2023/05/27 08:45:40;;;;;;;10.98;10.68;;;19.90;99.90;;;;;;5126728;28;20221;-87
2023/05/27 08:48:12;;;;;;;10.80;10.50;;;19.90;99.90;;;;;;5125943;28;20260;-88
2023/05/27 08:50:40;;;;;;;11.10;10.80;;;20.10;99.90;;;;;;5126559;28;20236;-88
2023/05/27 08:53:10;;;;;;;10.75;10.45;;;20.10;99.90;;;;;;5126590;28;20263;-87
2023/05/27 08:55:47;;;;;;;10.82;10.52;;;20.20;99.90;;;;;;5127882;28;20220;-87
2023/05/27 08:58:16;;;;;;;10.82;10.52;;;20.30;99.90;;;;;;5126082;27;20225;-87
2023/05/27 09:00:46;;;;;;;10.70;10.40;;;20.50;99.90;;;;;;5125892;28;20315;-88
2023/05/27 09:03:16;;;;;;;10.63;10.32;;;20.60;99.90;;;;;;5126157;28;20282;-88
2023/05/27 09:05:44;;;;;;;10.60;10.30;;;20.70;99.90;;;;;;5126152;28;20232;-88
2023/05/27 09:08:14;;;;;;;10.32;10.02;;;20.70;99.90;;;;;;5125095;28;20228;-88
2023/05/27 09:13:31;;;;;;;9.85;9.55;;;20.70;99.90;;;;;;5129462;27;20243;-87
2023/05/27 09:16:12;;;;;;;10.40;10.10;;;20.60;99.90;;;;;;5130000;27;20255;-88
2023/05/27 09:18:40;;;;;;;10.30;10.00;;;20.70;99.90;;;;;;5127632;28;20228;-87
2023/05/27 09:21:08;;;;;;;10.38;10.07;;;21.00;99.90;;;;;;5126690;28;20239;-88
2023/05/27 09:23:39;;;;;;;10.65;10.35;;;21.20;99.90;;;;;;5126808;28;20232;-87
2023/05/27 09:26:17;;;;;;;10.45;10.15;;;21.20;99.90;;;;;;5127096;28;20256;-88
2023/05/27 09:28:45;;;;;;;10.50;10.20;;;21.30;99.90;;;;;;5126961;28;20232;-87
2023/05/27 09:31:14;;;;;;;10.50;10.20;;;21.30;99.90;;;;;;5128577;28;20288;-87
2023/05/27 09:33:44;;;;;;;10.63;10.32;;;21.40;99.90;;;;;;5141508;28;20267;-87
2023/05/27 09:36:13;;;;;;;10.55;10.25;;;21.90;99.90;;;;;;5142002;28;20213;-85
2023/05/27 09:38:42;;;;;;;10.38;10.07;;;22.10;99.90;;;;;;5141662;28;20204;-85
2023/05/27 09:41:21;;;;;;;10.80;10.50;;;22.30;99.90;;;;;;5136835;28;20225;-86
2023/05/27 09:44:00;;;;;;;10.45;10.15;;;22.70;99.90;;;;;;5128146;28;20264;-86
2023/05/27 09:46:28;;;;;;;10.30;10.00;;;22.80;99.90;;;;;;5126486;28;20270;-85
2023/05/27 09:48:58;;;;;;;10.30;10.00;;;23.00;99.90;;;;;;5125770;27;20221;-88
2023/05/27 09:51:27;;;;;;;10.65;10.35;;;23.00;99.90;;;;;;5126892;28;20315;-86
2023/05/27 09:53:56;;;;;;;10.80;10.50;;;23.10;99.90;;;;;;5130569;28;20229;-86
2023/05/27 09:56:35;;;;;;;10.43;10.13;;;23.20;99.90;;;;;;5127762;28;20296;-86
2023/05/27 09:59:06;;;;;;;10.55;10.25;;;23.50;99.90;;;;;;5126662;27;20225;-86
2023/05/27 10:01:35;;;;;;;10.10;9.80;;;23.70;99.90;;;;;;5126800;28;20224;-86
2023/05/27 10:04:05;;;;;;;9.95;9.65;;;23.60;99.90;;;;;;5125930;28;20232;-86
2023/05/27 10:06:34;;;;;;;10.00;9.70;;;23.70;99.90;;;;;;5126357;28;20311;-86
2023/05/27 10:09:03;;;;;;;9.88;9.57;;;23.50;99.90;;;;;;5125996;27;20223;-86
2023/05/27 10:11:44;;;;;;;10.00;9.70;;;23.40;99.90;;;;;;5126256;28;20225;-86
2023/05/27 10:14:12;;;;;;;10.25;9.95;;;23.40;99.90;;;;;;5125820;28;20389;-86
2023/05/27 10:16:42;;;;;;;10.10;9.80;;;23.40;99.90;;;;;;5125766;28;20229;-87
2023/05/27 10:19:12;;;;;;;9.88;9.57;;;23.50;99.90;;;;;;5127617;27;20326;-86
2023/05/27 10:21:49;;;;;;;10.00;9.70;;;23.60;99.90;;;;;;5126772;28;20224;-86
2023/05/27 10:24:19;;;;;;;10.02;9.73;;;23.50;99.90;;;;;;5126369;27;20228;-86
2023/05/27 10:27:05;;;;;;;10.10;9.80;;;23.50;99.90;;;;;;5127539;28;20256;-87
2023/05/27 10:29:46;;;;;;;10.10;9.80;;;23.60;99.90;;;;;;5126813;28;20225;-86
2023/05/27 10:32:14;;;;;;;10.00;9.70;;;23.70;99.90;;;;;;5130783;28;20252;-86
2023/05/27 10:34:58;;;;;;;10.02;9.73;;;23.60;99.90;;;;;;5137117;28;20224;-86
2023/05/27 10:37:38;;;;;;;10.02;9.73;;;23.60;99.90;;;;;;5140100;28;20224;-85
2023/05/27 10:40:09;;;;;;;9.80;9.50;;;23.80;99.90;;;;;;5142010;27;20220;-86
2023/05/27 10:42:40;;;;;;;10.02;9.73;;;24.00;99.90;;;;;;5141854;28;20209;-86
2023/05/27 10:45:15;;;;;;;10.02;9.73;;;24.00;99.90;;;;;;5140454;27;20219;-86
2023/05/27 10:47:55;;;;;;;10.10;9.80;;;24.30;99.90;;;;;;5136736;28;20251;-86
2023/05/27 10:50:33;;;;;;;10.40;10.10;;;24.50;99.90;;;;;;5138063;28;20224;-86
2023/05/27 10:53:02;;;;;;;9.93;9.63;;;24.70;99.90;;;;;;5140708;28;20250;-86
2023/05/27 10:55:33;;;;;;;10.27;9.98;;;24.70;99.90;;;;;;5141279;27;20225;-86
2023/05/27 10:58:08;;;;;;;10.10;9.80;;;24.60;99.90;;;;;;5160057;22;20290;-86
2023/05/27 11:00:41;;;;;;;10.05;9.75;;;24.30;99.90;;;;;;5123196;27;20232;-87
2023/05/27 11:03:26;;;;;;;10.10;9.80;;;24.10;99.90;;;;;;5126414;28;20292;-87
2023/05/27 11:06:06;;;;;;;10.13;9.82;;;24.40;99.90;;;;;;5124507;28;20239;-87
2023/05/27 11:08:42;;;;;;;10.13;9.82;;;24.50;99.90;;;;;;5123969;28;20235;-86
2023/05/27 11:11:12;;;;;;;9.70;9.40;;;24.30;99.90;;;;;;5124674;28;20231;-87
2023/05/27 11:13:51;;;;;;;9.70;9.40;;;24.30;99.90;;;;;;5123734;28;20278;-87
2023/05/27 11:16:27;;;;;;;10.20;9.90;;;24.30;99.90;;;;;;5124274;28;20229;-87
2023/05/27 11:18:58;;;;;;;10.05;9.75;;;24.30;99.90;;;;;;5124425;28;20243;-86
2023/05/27 11:21:27;;;;;;;9.95;9.65;;;24.20;99.90;;;;;;5141709;27;20201;-85
2023/05/27 11:23:58;;;;;;;10.10;9.80;;;24.50;99.90;;;;;;5141493;27;20212;-85
2023/05/27 11:26:27;;;;;;;10.05;9.75;;;24.60;99.90;;;;;;5128323;27;20252;-87
2023/05/27 11:29:06;;;;;;;10.30;10.00;;;24.70;99.90;;;;;;5125424;28;20232;-87
2023/05/27 11:31:33;;;;;;;10.23;9.93;;;24.80;99.90;;;;;;5124980;27;20216;-87
2023/05/27 11:34:02;;;;;;;10.05;9.75;;;24.60;99.90;;;;;;5123335;28;20235;-86
2023/05/27 11:36:32;;;;;;;9.80;9.50;;;24.60;99.90;;;;;;5133823;28;20267;-85
2023/05/27 11:39:01;;;;;;;9.80;9.50;;;24.70;99.90;;;;;;5122153;28;20225;-86
2023/05/27 11:41:33;;;;;;;9.90;9.60;;;25.10;99.90;;;;;;5122456;28;20319;-87
2023/05/27 11:44:10;;;;;;;9.70;9.40;;;25.70;99.90;;;;;;5122100;28;20240;-86
2023/05/27 11:46:39;;;;;;;9.98;9.68;;;26.00;99.90;;;;;;5121844;27;20232;-86
2023/05/27 11:49:10;;;;;;;9.80;9.50;;;26.40;99.90;;;;;;5121339;28;20233;-87
2023/05/27 11:54:33;;;;;;;10.00;9.70;;;27.00;99.90;;;;;;5121798;28;20253;-87
2023/05/27 11:57:06;;;;;;;10.00;9.70;;;27.30;99.90;;;;;;5121872;28;20232;-87
2023/05/27 12:02:20;;;;;;;9.90;9.60;;;27.10;99.90;;;;;;5140877;27;20224;-87
2023/05/27 12:04:50;;;;;;;9.80;9.50;;;27.10;99.90;;;;;;5141966;27;20281;-86
2023/05/27 12:07:21;;;;;;;9.75;9.45;;;27.10;99.90;;;;;;5142667;27;20219;-85
2023/05/27 12:09:56;;;;;;;9.90;9.60;;;27.10;99.90;;;;;;5141541;27;20326;-86
2023/05/27 12:12:33;;;;;;;9.93;9.63;;;27.30;99.90;;;;;;5141857;27;20212;-87
2023/05/27 12:15:15;;;;;;;9.75;9.45;;;27.50;99.90;;;;;;5142749;27;20236;-87
2023/05/27 12:17:47;;;;;;;10.00;9.70;;;27.60;99.90;;;;;;5142382;27;20223;-86
2023/05/27 12:20:31;;;;;;;10.30;10.00;;;27.90;99.90;;;;;;5141800;27;20232;-87
2023/05/27 12:23:11;;;;;;;10.70;10.40;;;28.10;99.90;;;;;;5142199;27;20231;-86
2023/05/27 12:25:49;;;;;;;10.25;9.95;;;28.00;99.90;;;;;;5141789;27;20227;-86
2023/05/27 12:28:36;;;;;;;10.40;10.10;;;28.10;99.90;;;;;;5142008;27;20262;-86
2023/05/27 12:31:06;;;;;;;10.35;10.05;;;28.40;99.90;;;;;;5149146;27;20227;-84
2023/05/27 12:33:42;;;;;;;10.20;9.90;;;28.60;99.90;;;;;;5161439;27;20308;-83
2023/05/27 12:36:12;;;;;;;10.32;10.02;;;28.80;99.90;;;;;;5153898;27;20232;-86
2023/05/27 12:38:51;;;;;;;9.93;9.63;;;29.20;99.90;;;;;;5142212;27;20227;-87
2023/05/27 12:41:21;;;;;;;10.05;9.75;;;29.20;99.90;;;;;;5150613;27;20215;-85
2023/05/27 12:44:07;;;;;;;10.00;9.70;;;29.30;99.90;;;;;;5158776;27;20283;-85
2023/05/27 12:46:38;;;;;;;10.13;9.82;;;29.60;99.90;;;;;;5158860;27;20234;-86
2023/05/27 12:49:07;;;;;;;10.27;9.98;;;29.70;99.90;;;;;;5154681;27;20238;-86
2023/05/27 12:51:35;;;;;;;10.20;9.90;;;29.80;99.50;;;;;;5142588;27;20311;-86
2023/05/27 12:54:05;;;;;;;10.57;10.27;;;29.90;99.40;;;;;;5142205;27;20216;-85
2023/05/27 12:56:33;;;;;;;10.50;10.20;;;29.90;99.90;;;;;;5142530;27;20262;-86
2023/05/27 12:59:02;;;;;;;10.57;10.27;;;30.10;99.90;;;;;;5141167;27;20247;-86
2023/05/27 13:01:33;;;;;;;10.60;10.30;;;30.30;99.90;;;;;;5151602;27;20204;-84
2023/05/27 13:04:04;;;;;;;10.43;10.13;;;30.50;98.30;;;;;;5142899;27;20228;-86
2023/05/27 13:06:32;;;;;;;10.45;10.15;;;30.60;99.10;;;;;;5142632;27;20262;-85
2023/05/27 13:09:02;;;;;;;10.40;10.10;;;30.50;97.90;;;;;;5148643;27;20236;-83
2023/05/27 13:11:30;;;;;;;10.60;10.30;;;30.50;97.40;;;;;;5160315;27;20216;-83
2023/05/27 13:13:59;;;;;;;10.13;9.82;;;30.60;97.10;;;;;;5156514;27;20227;-86
2023/05/27 13:16:30;;;;;;;10.13;9.82;;;30.60;98.00;;;;;;5142465;27;20318;-84